South Gifford, Missouri
Current Conditions -  °F | °C
As of 11:55 AM on Monday 24 Nov 2014 (Local Time) from KIRK Reporting Station
Overcast Overcast  
Wind Chill: 19°   Ceiling: 2700
Heat Index: 31°   Visibility: 10mi
Dew Point: 23°   Wind: 17mph
Humidity: 72%   Direction: 280°W
Pressure: 29.66"   Gusts: 25mph
Location:  40.0105°N, 92.5282°W
Report Text: KIRK 241755Z AUTO 28015G22KT 10SM OVC027 M01/M05 A2966 RMK AO2 PK WND 29026/1743 SLP054 T10061050 10000 21011 51030
Loading
Personal Weather Stations






























Interactive Weather Map New forecast layout! Learn more

10-Day Weather Forecast

Advertisements
Track Severe Weather on mobile